sensor_id;sensor_type;location;lat;lon;timestamp;P1;durP1;ratioP1;P2;durP2;ratioP2
65077;SDS011;51672;51.230;-2.322;2022-11-18T00:00:41;4.20;;;0.85;;
65077;SDS011;51672;51.230;-2.322;2022-11-18T00:04:23;5.03;;;0.60;;
65077;SDS011;51672;51.230;-2.322;2022-11-18T00:08:05;5.15;;;0.80;;
65077;SDS011;51672;51.230;-2.322;2022-11-18T00:11:47;6.07;;;0.60;;
65077;SDS011;51672;51.230;-2.322;2022-11-18T00:15:48;5.50;;;1.10;;
65077;SDS011;51672;51.230;-2.322;2022-11-18T00:19:32;5.00;;;0.70;;
65077;SDS011;51672;51.230;-2.322;2022-11-18T00:23:18;7.47;;;1.20;;
65077;SDS011;51672;51.230;-2.322;2022-11-18T00:27:00;6.13;;;0.75;;
65077;SDS011;51672;51.230;-2.322;2022-11-18T00:30:42;6.70;;;0.90;;
65077;SDS011;51672;51.230;-2.322;2022-11-18T00:34:24;7.00;;;1.23;;
65077;SDS011;51672;51.230;-2.322;2022-11-18T00:38:07;8.38;;;0.90;;
65077;SDS011;51672;51.230;-2.322;2022-11-18T00:41:49;9.88;;;1.48;;
65077;SDS011;51672;51.230;-2.322;2022-11-18T00:45:49;5.18;;;0.80;;
65077;SDS011;51672;51.230;-2.322;2022-11-18T00:49:32;5.25;;;0.73;;
65077;SDS011;51672;51.230;-2.322;2022-11-18T00:53:14;6.28;;;0.70;;
65077;SDS011;51672;51.230;-2.322;2022-11-18T00:56:57;4.43;;;0.80;;
65077;SDS011;51672;51.230;-2.322;2022-11-18T01:00:43;5.17;;;0.73;;
65077;SDS011;51672;51.230;-2.322;2022-11-18T01:04:26;6.00;;;0.60;;
65077;SDS011;51672;51.230;-2.322;2022-11-18T01:08:09;5.15;;;0.95;;
65077;SDS011;51672;51.230;-2.322;2022-11-18T01:11:52;7.83;;;0.90;;
65077;SDS011;51672;51.230;-2.322;2022-11-18T01:15:56;6.90;;;1.23;;
65077;SDS011;51672;51.230;-2.322;2022-11-18T01:19:38;6.57;;;0.90;;
65077;SDS011;51672;51.230;-2.322;2022-11-18T01:23:21;6.38;;;0.77;;
65077;SDS011;51672;51.230;-2.322;2022-11-18T01:27:02;6.40;;;0.90;;
65077;SDS011;51672;51.230;-2.322;2022-11-18T01:30:44;7.18;;;1.00;;
65077;SDS011;51672;51.230;-2.322;2022-11-18T01:34:27;5.15;;;0.90;;
65077;SDS011;51672;51.230;-2.322;2022-11-18T01:38:10;7.13;;;0.60;;
65077;SDS011;51672;51.230;-2.322;2022-11-18T01:41:53;6.90;;;1.00;;
65077;SDS011;51672;51.230;-2.322;2022-11-18T01:45:38;6.88;;;1.10;;
65077;SDS011;51672;51.230;-2.322;2022-11-18T01:49:21;3.60;;;0.90;;
65077;SDS011;51672;51.230;-2.322;2022-11-18T01:53:04;5.25;;;1.00;;
65077;SDS011;51672;51.230;-2.322;2022-11-18T01:56:57;7.22;;;0.77;;
65077;SDS011;51672;51.230;-2.322;2022-11-18T02:00:43;6.05;;;1.17;;
65077;SDS011;51672;51.230;-2.322;2022-11-18T02:04:26;4.38;;;0.88;;
65077;SDS011;51672;51.230;-2.322;2022-11-18T02:08:08;6.20;;;1.30;;
65077;SDS011;51672;51.230;-2.322;2022-11-18T02:11:50;14.60;;;1.10;;
65077;SDS011;51672;51.230;-2.322;2022-11-18T02:19:49;7.70;;;0.93;;
65077;SDS011;51672;51.230;-2.322;2022-11-18T02:32:47;8.75;;;0.90;;
65077;SDS011;51672;51.230;-2.322;2022-11-18T02:41:06;5.07;;;0.98;;
65077;SDS011;51672;51.230;-2.322;2022-11-18T02:44:59;7.32;;;0.93;;
65077;SDS011;51672;51.230;-2.322;2022-11-18T02:48:47;3.75;;;0.95;;
65077;SDS011;51672;51.230;-2.322;2022-11-18T02:52:31;7.57;;;1.17;;
65077;SDS011;51672;51.230;-2.322;2022-11-18T02:56:16;4.97;;;0.93;;
65077;SDS011;51672;51.230;-2.322;2022-11-18T03:00:00;6.03;;;1.30;;
65077;SDS011;51672;51.230;-2.322;2022-11-18T03:03:42;7.15;;;0.90;;
65077;SDS011;51672;51.230;-2.322;2022-11-18T03:07:31;3.63;;;0.70;;
65077;SDS011;51672;51.230;-2.322;2022-11-18T03:11:23;4.30;;;0.63;;
65077;SDS011;51672;51.230;-2.322;2022-11-18T03:15:19;4.63;;;0.82;;
65077;SDS011;51672;51.230;-2.322;2022-11-18T03:23:35;5.55;;;0.80;;
65077;SDS011;51672;51.230;-2.322;2022-11-18T03:27:24;4.35;;;0.55;;
65077;SDS011;51672;51.230;-2.322;2022-11-18T03:31:22;4.32;;;0.60;;
65077;SDS011;51672;51.230;-2.322;2022-11-18T03:35:09;3.83;;;0.60;;
65077;SDS011;51672;51.230;-2.322;2022-11-18T03:38:56;4.15;;;0.63;;
65077;SDS011;51672;51.230;-2.322;2022-11-18T03:42:41;4.75;;;0.50;;
65077;SDS011;51672;51.230;-2.322;2022-11-18T03:46:38;6.00;;;1.07;;
65077;SDS011;51672;51.230;-2.322;2022-11-18T03:50:25;4.75;;;0.73;;
65077;SDS011;51672;51.230;-2.322;2022-11-18T03:54:13;4.45;;;0.60;;
65077;SDS011;51672;51.230;-2.322;2022-11-18T04:02:03;9.25;;;0.80;;
65077;SDS011;51672;51.230;-2.322;2022-11-18T04:05:54;4.53;;;0.73;;
65077;SDS011;51672;51.230;-2.322;2022-11-18T04:09:45;3.20;;;0.63;;
65077;SDS011;51672;51.230;-2.322;2022-11-18T04:13:40;4.13;;;0.63;;
65077;SDS011;51672;51.230;-2.322;2022-11-18T04:17:22;4.20;;;0.68;;
65077;SDS011;51672;51.230;-2.322;2022-11-18T04:21:08;8.43;;;1.10;;
65077;SDS011;51672;51.230;-2.322;2022-11-18T04:24:50;4.43;;;1.00;;
65077;SDS011;51672;51.230;-2.322;2022-11-18T04:28:32;5.93;;;0.70;;
65077;SDS011;51672;51.230;-2.322;2022-11-18T04:32:14;8.77;;;0.88;;
65077;SDS011;51672;51.230;-2.322;2022-11-18T04:35:56;6.43;;;1.30;;
65077;SDS011;51672;51.230;-2.322;2022-11-18T04:39:37;7.70;;;1.17;;
65077;SDS011;51672;51.230;-2.322;2022-11-18T04:43:19;7.68;;;1.35;;
65077;SDS011;51672;51.230;-2.322;2022-11-18T04:47:03;8.07;;;1.13;;
65077;SDS011;51672;51.230;-2.322;2022-11-18T04:50:46;6.07;;;0.90;;
65077;SDS011;51672;51.230;-2.322;2022-11-18T04:54:28;11.85;;;1.13;;
65077;SDS011;51672;51.230;-2.322;2022-11-18T04:58:10;7.68;;;1.02;;
65077;SDS011;51672;51.230;-2.322;2022-11-18T05:01:52;7.80;;;0.90;;
65077;SDS011;51672;51.230;-2.322;2022-11-18T05:05:35;9.68;;;1.10;;
65077;SDS011;51672;51.230;-2.322;2022-11-18T05:09:18;7.13;;;1.02;;
65077;SDS011;51672;51.230;-2.322;2022-11-18T05:13:01;6.47;;;1.00;;
65077;SDS011;51672;51.230;-2.322;2022-11-18T05:16:43;10.25;;;1.10;;
65077;SDS011;51672;51.230;-2.322;2022-11-18T05:20:25;10.20;;;1.48;;
65077;SDS011;51672;51.230;-2.322;2022-11-18T05:24:07;14.50;;;1.17;;
65077;SDS011;51672;51.230;-2.322;2022-11-18T05:27:48;7.73;;;1.10;;
65077;SDS011;51672;51.230;-2.322;2022-11-18T05:31:31;10.02;;;1.08;;
65077;SDS011;51672;51.230;-2.322;2022-11-18T05:35:13;11.23;;;1.10;;
65077;SDS011;51672;51.230;-2.322;2022-11-18T05:38:57;5.40;;;1.10;;
65077;SDS011;51672;51.230;-2.322;2022-11-18T05:42:40;7.43;;;0.85;;
65077;SDS011;51672;51.230;-2.322;2022-11-18T05:46:40;8.25;;;1.08;;
65077;SDS011;51672;51.230;-2.322;2022-11-18T05:50:22;10.80;;;1.20;;
65077;SDS011;51672;51.230;-2.322;2022-11-18T05:54:06;6.15;;;1.13;;
65077;SDS011;51672;51.230;-2.322;2022-11-18T05:57:50;8.27;;;1.10;;
65077;SDS011;51672;51.230;-2.322;2022-11-18T06:01:34;10.10;;;1.38;;
65077;SDS011;51672;51.230;-2.322;2022-11-18T06:05:25;9.70;;;1.40;;
65077;SDS011;51672;51.230;-2.322;2022-11-18T06:09:07;8.32;;;1.20;;
65077;SDS011;51672;51.230;-2.322;2022-11-18T06:12:55;9.82;;;1.48;;
65077;SDS011;51672;51.230;-2.322;2022-11-18T06:16:42;7.57;;;1.30;;
65077;SDS011;51672;51.230;-2.322;2022-11-18T06:20:26;10.13;;;1.40;;
65077;SDS011;51672;51.230;-2.322;2022-11-18T06:24:09;10.35;;;1.10;;
65077;SDS011;51672;51.230;-2.322;2022-11-18T06:27:52;9.50;;;1.30;;
65077;SDS011;51672;51.230;-2.322;2022-11-18T06:31:37;9.70;;;1.27;;
65077;SDS011;51672;51.230;-2.322;2022-11-18T06:35:19;9.40;;;1.58;;
65077;SDS011;51672;51.230;-2.322;2022-11-18T06:39:02;8.88;;;1.42;;
65077;SDS011;51672;51.230;-2.322;2022-11-18T06:42:45;7.80;;;1.40;;
65077;SDS011;51672;51.230;-2.322;2022-11-18T06:46:45;10.65;;;1.50;;
65077;SDS011;51672;51.230;-2.322;2022-11-18T06:50:36;10.65;;;1.30;;
65077;SDS011;51672;51.230;-2.322;2022-11-18T06:54:18;7.63;;;0.90;;
65077;SDS011;51672;51.230;-2.322;2022-11-18T06:58:00;10.40;;;1.13;;
65077;SDS011;51672;51.230;-2.322;2022-11-18T07:01:42;7.88;;;1.20;;
65077;SDS011;51672;51.230;-2.322;2022-11-18T07:05:24;6.13;;;1.47;;
65077;SDS011;51672;51.230;-2.322;2022-11-18T07:09:06;9.68;;;1.55;;
65077;SDS011;51672;51.230;-2.322;2022-11-18T07:12:48;8.18;;;1.20;;
65077;SDS011;51672;51.230;-2.322;2022-11-18T07:16:32;7.53;;;1.13;;
65077;SDS011;51672;51.230;-2.322;2022-11-18T07:20:16;8.43;;;0.90;;
65077;SDS011;51672;51.230;-2.322;2022-11-18T07:23:59;8.00;;;1.20;;
65077;SDS011;51672;51.230;-2.322;2022-11-18T07:27:41;4.80;;;0.82;;
65077;SDS011;51672;51.230;-2.322;2022-11-18T07:31:23;6.60;;;1.30;;
65077;SDS011;51672;51.230;-2.322;2022-11-18T07:35:05;8.65;;;1.08;;
65077;SDS011;51672;51.230;-2.322;2022-11-18T07:38:47;7.50;;;0.88;;
65077;SDS011;51672;51.230;-2.322;2022-11-18T07:42:29;6.97;;;1.40;;
65077;SDS011;51672;51.230;-2.322;2022-11-18T07:46:24;9.05;;;1.25;;
65077;SDS011;51672;51.230;-2.322;2022-11-18T07:50:09;8.27;;;1.35;;
65077;SDS011;51672;51.230;-2.322;2022-11-18T07:53:51;11.93;;;1.27;;
65077;SDS011;51672;51.230;-2.322;2022-11-18T07:57:33;6.60;;;0.87;;
65077;SDS011;51672;51.230;-2.322;2022-11-18T08:01:17;9.68;;;1.40;;
65077;SDS011;51672;51.230;-2.322;2022-11-18T08:05:00;6.50;;;1.02;;
65077;SDS011;51672;51.230;-2.322;2022-11-18T08:08:44;9.50;;;1.33;;
65077;SDS011;51672;51.230;-2.322;2022-11-18T08:12:26;5.18;;;1.00;;
65077;SDS011;51672;51.230;-2.322;2022-11-18T08:16:12;7.78;;;1.40;;
65077;SDS011;51672;51.230;-2.322;2022-11-18T08:19:56;7.37;;;1.40;;
65077;SDS011;51672;51.230;-2.322;2022-11-18T08:23:38;6.45;;;1.10;;
65077;SDS011;51672;51.230;-2.322;2022-11-18T08:27:22;4.43;;;1.10;;
65077;SDS011;51672;51.230;-2.322;2022-11-18T08:31:12;8.20;;;1.20;;
65077;SDS011;51672;51.230;-2.322;2022-11-18T08:39:13;5.18;;;1.20;;
65077;SDS011;51672;51.230;-2.322;2022-11-18T08:55:27;4.53;;;1.00;;
65077;SDS011;51672;51.230;-2.322;2022-11-18T09:03:19;8.10;;;1.25;;
65077;SDS011;51672;51.230;-2.322;2022-11-18T09:20:23;4.30;;;1.02;;
65077;SDS011;51672;51.230;-2.322;2022-11-18T09:24:14;4.78;;;1.05;;
65077;SDS011;51672;51.230;-2.322;2022-11-18T09:28:07;5.10;;;1.20;;
65077;SDS011;51672;51.230;-2.322;2022-11-18T09:35:58;5.43;;;0.90;;
65077;SDS011;51672;51.230;-2.322;2022-11-18T09:56:46;5.37;;;1.33;;
65077;SDS011;51672;51.230;-2.322;2022-11-18T11:08:25;7.55;;;1.60;;
65077;SDS011;51672;51.230;-2.322;2022-11-18T14:59:51;6.60;;;0.85;;
65077;SDS011;51672;51.230;-2.322;2022-11-18T15:40:27;8.88;;;1.20;;
65077;SDS011;51672;51.230;-2.322;2022-11-18T15:48:13;9.95;;;1.88;;
65077;SDS011;51672;51.230;-2.322;2022-11-18T16:00:38;8.73;;;1.77;;
65077;SDS011;51672;51.230;-2.322;2022-11-18T16:08:29;12.18;;;1.73;;
65077;SDS011;51672;51.230;-2.322;2022-11-18T16:16:31;12.00;;;1.70;;
65077;SDS011;51672;51.230;-2.322;2022-11-18T16:28:46;12.20;;;2.03;;
65077;SDS011;51672;51.230;-2.322;2022-11-18T16:32:27;11.60;;;2.70;;
65077;SDS011;51672;51.230;-2.322;2022-11-18T16:36:10;9.48;;;2.05;;
65077;SDS011;51672;51.230;-2.322;2022-11-18T16:39:52;7.07;;;2.00;;
65077;SDS011;51672;51.230;-2.322;2022-11-18T16:43:34;11.38;;;2.33;;
65077;SDS011;51672;51.230;-2.322;2022-11-18T16:47:16;13.68;;;2.60;;
65077;SDS011;51672;51.230;-2.322;2022-11-18T16:51:06;10.37;;;2.53;;
65077;SDS011;51672;51.230;-2.322;2022-11-18T16:55:01;13.80;;;2.72;;
65077;SDS011;51672;51.230;-2.322;2022-11-18T16:58:43;12.05;;;2.80;;
65077;SDS011;51672;51.230;-2.322;2022-11-18T17:02:25;12.55;;;4.20;;
65077;SDS011;51672;51.230;-2.322;2022-11-18T17:06:08;15.90;;;4.10;;
65077;SDS011;51672;51.230;-2.322;2022-11-18T17:09:50;13.23;;;3.22;;
65077;SDS011;51672;51.230;-2.322;2022-11-18T17:13:32;9.75;;;2.80;;
65077;SDS011;51672;51.230;-2.322;2022-11-18T17:17:14;10.80;;;2.80;;
65077;SDS011;51672;51.230;-2.322;2022-11-18T17:21:00;9.18;;;2.30;;
65077;SDS011;51672;51.230;-2.322;2022-11-18T17:24:45;8.57;;;2.40;;
65077;SDS011;51672;51.230;-2.322;2022-11-18T17:28:31;8.83;;;2.50;;
65077;SDS011;51672;51.230;-2.322;2022-11-18T17:32:14;10.45;;;2.80;;
65077;SDS011;51672;51.230;-2.322;2022-11-18T17:35:57;10.75;;;3.88;;
65077;SDS011;51672;51.230;-2.322;2022-11-18T17:39:47;12.98;;;3.42;;
65077;SDS011;51672;51.230;-2.322;2022-11-18T17:43:29;12.85;;;2.88;;
65077;SDS011;51672;51.230;-2.322;2022-11-18T17:47:11;11.05;;;3.15;;
65077;SDS011;51672;51.230;-2.322;2022-11-18T17:51:01;10.32;;;3.05;;
65077;SDS011;51672;51.230;-2.322;2022-11-18T17:54:47;13.00;;;2.80;;
65077;SDS011;51672;51.230;-2.322;2022-11-18T17:58:29;10.68;;;2.60;;
65077;SDS011;51672;51.230;-2.322;2022-11-18T18:02:11;12.15;;;2.85;;
65077;SDS011;51672;51.230;-2.322;2022-11-18T18:05:59;14.67;;;3.13;;
65077;SDS011;51672;51.230;-2.322;2022-11-18T18:09:44;9.10;;;2.70;;
65077;SDS011;51672;51.230;-2.322;2022-11-18T18:13:27;15.00;;;2.75;;
65077;SDS011;51672;51.230;-2.322;2022-11-18T18:17:28;11.38;;;3.10;;
65077;SDS011;51672;51.230;-2.322;2022-11-18T18:21:10;11.20;;;2.92;;
65077;SDS011;51672;51.230;-2.322;2022-11-18T18:24:53;12.75;;;3.00;;
65077;SDS011;51672;51.230;-2.322;2022-11-18T18:28:36;10.98;;;3.17;;
65077;SDS011;51672;51.230;-2.322;2022-11-18T18:32:18;17.23;;;4.27;;
65077;SDS011;51672;51.230;-2.322;2022-11-18T18:36:00;15.10;;;4.30;;
65077;SDS011;51672;51.230;-2.322;2022-11-18T18:39:44;13.20;;;3.42;;
65077;SDS011;51672;51.230;-2.322;2022-11-18T18:43:26;12.93;;;3.77;;
65077;SDS011;51672;51.230;-2.322;2022-11-18T18:47:08;13.55;;;2.80;;
65077;SDS011;51672;51.230;-2.322;2022-11-18T18:50:51;12.18;;;3.38;;
65077;SDS011;51672;51.230;-2.322;2022-11-18T18:54:33;11.63;;;3.63;;
65077;SDS011;51672;51.230;-2.322;2022-11-18T18:58:15;11.43;;;3.55;;
65077;SDS011;51672;51.230;-2.322;2022-11-18T19:02:00;12.90;;;3.90;;
65077;SDS011;51672;51.230;-2.322;2022-11-18T19:05:45;12.45;;;3.42;;
65077;SDS011;51672;51.230;-2.322;2022-11-18T19:09:47;15.23;;;4.20;;
65077;SDS011;51672;51.230;-2.322;2022-11-18T19:13:29;18.42;;;5.07;;
65077;SDS011;51672;51.230;-2.322;2022-11-18T19:17:11;12.60;;;3.92;;
65077;SDS011;51672;51.230;-2.322;2022-11-18T19:20:54;12.53;;;4.20;;
65077;SDS011;51672;51.230;-2.322;2022-11-18T19:24:42;14.00;;;3.60;;
65077;SDS011;51672;51.230;-2.322;2022-11-18T19:28:33;12.32;;;3.50;;
65077;SDS011;51672;51.230;-2.322;2022-11-18T19:32:15;10.97;;;3.50;;
65077;SDS011;51672;51.230;-2.322;2022-11-18T19:36:04;13.43;;;3.75;;
65077;SDS011;51672;51.230;-2.322;2022-11-18T19:39:46;11.57;;;3.72;;
65077;SDS011;51672;51.230;-2.322;2022-11-18T19:43:28;13.82;;;3.95;;
65077;SDS011;51672;51.230;-2.322;2022-11-18T19:47:10;20.23;;;5.43;;
65077;SDS011;51672;51.230;-2.322;2022-11-18T19:51:08;14.38;;;4.10;;
65077;SDS011;51672;51.230;-2.322;2022-11-18T19:54:52;15.52;;;4.10;;
65077;SDS011;51672;51.230;-2.322;2022-11-18T19:58:36;14.13;;;4.20;;
65077;SDS011;51672;51.230;-2.322;2022-11-18T20:02:20;8.32;;;3.28;;
65077;SDS011;51672;51.230;-2.322;2022-11-18T20:06:02;10.65;;;3.78;;
65077;SDS011;51672;51.230;-2.322;2022-11-18T20:09:45;9.43;;;3.67;;
65077;SDS011;51672;51.230;-2.322;2022-11-18T20:13:27;15.20;;;4.40;;
65077;SDS011;51672;51.230;-2.322;2022-11-18T20:17:10;13.65;;;5.10;;
65077;SDS011;51672;51.230;-2.322;2022-11-18T20:20:54;17.50;;;4.90;;
65077;SDS011;51672;51.230;-2.322;2022-11-18T20:24:36;13.63;;;4.37;;
65077;SDS011;51672;51.230;-2.322;2022-11-18T20:28:18;12.77;;;5.00;;
65077;SDS011;51672;51.230;-2.322;2022-11-18T20:32:00;15.55;;;5.05;;
65077;SDS011;51672;51.230;-2.322;2022-11-18T20:35:42;13.33;;;4.67;;
65077;SDS011;51672;51.230;-2.322;2022-11-18T20:39:24;14.38;;;4.95;;
65077;SDS011;51672;51.230;-2.322;2022-11-18T20:43:08;12.75;;;5.80;;
65077;SDS011;51672;51.230;-2.322;2022-11-18T20:46:54;15.63;;;5.83;;
65077;SDS011;51672;51.230;-2.322;2022-11-18T20:50:39;12.18;;;5.35;;
65077;SDS011;51672;51.230;-2.322;2022-11-18T20:54:20;15.48;;;6.55;;
65077;SDS011;51672;51.230;-2.322;2022-11-18T20:58:02;18.00;;;5.57;;
65077;SDS011;51672;51.230;-2.322;2022-11-18T21:01:44;18.50;;;5.47;;
65077;SDS011;51672;51.230;-2.322;2022-11-18T21:05:26;13.93;;;5.72;;
65077;SDS011;51672;51.230;-2.322;2022-11-18T21:09:10;18.75;;;5.13;;
65077;SDS011;51672;51.230;-2.322;2022-11-18T21:12:52;13.77;;;5.87;;
65077;SDS011;51672;51.230;-2.322;2022-11-18T21:16:53;13.07;;;5.57;;
65077;SDS011;51672;51.230;-2.322;2022-11-18T21:20:40;14.57;;;6.90;;
65077;SDS011;51672;51.230;-2.322;2022-11-18T21:24:40;15.50;;;6.87;;
65077;SDS011;51672;51.230;-2.322;2022-11-18T21:28:25;19.02;;;6.30;;
65077;SDS011;51672;51.230;-2.322;2022-11-18T21:32:07;16.63;;;6.97;;
65077;SDS011;51672;51.230;-2.322;2022-11-18T21:35:49;11.63;;;4.60;;
65077;SDS011;51672;51.230;-2.322;2022-11-18T21:39:31;9.87;;;3.80;;
65077;SDS011;51672;51.230;-2.322;2022-11-18T21:43:13;15.68;;;4.72;;
65077;SDS011;51672;51.230;-2.322;2022-11-18T21:46:55;11.32;;;3.50;;
65077;SDS011;51672;51.230;-2.322;2022-11-18T21:50:38;8.43;;;3.03;;
65077;SDS011;51672;51.230;-2.322;2022-11-18T21:54:19;10.52;;;2.65;;
65077;SDS011;51672;51.230;-2.322;2022-11-18T21:58:01;15.40;;;3.00;;
65077;SDS011;51672;51.230;-2.322;2022-11-18T22:01:44;10.40;;;2.63;;
65077;SDS011;51672;51.230;-2.322;2022-11-18T22:05:26;11.73;;;2.70;;
65077;SDS011;51672;51.230;-2.322;2022-11-18T22:09:08;12.95;;;3.30;;
65077;SDS011;51672;51.230;-2.322;2022-11-18T22:12:50;9.60;;;2.38;;
65077;SDS011;51672;51.230;-2.322;2022-11-18T22:16:32;11.60;;;2.60;;
65077;SDS011;51672;51.230;-2.322;2022-11-18T22:20:14;10.40;;;2.42;;
65077;SDS011;51672;51.230;-2.322;2022-11-18T22:23:57;9.25;;;2.40;;
65077;SDS011;51672;51.230;-2.322;2022-11-18T22:27:40;11.13;;;2.37;;
65077;SDS011;51672;51.230;-2.322;2022-11-18T22:31:23;12.48;;;2.65;;
65077;SDS011;51672;51.230;-2.322;2022-11-18T22:35:06;10.27;;;3.20;;
65077;SDS011;51672;51.230;-2.322;2022-11-18T22:38:48;8.90;;;3.40;;
65077;SDS011;51672;51.230;-2.322;2022-11-18T22:42:30;11.60;;;3.83;;
65077;SDS011;51672;51.230;-2.322;2022-11-18T22:46:27;13.98;;;4.25;;
65077;SDS011;51672;51.230;-2.322;2022-11-18T22:50:09;10.15;;;3.88;;
65077;SDS011;51672;51.230;-2.322;2022-11-18T22:53:51;8.53;;;3.50;;
65077;SDS011;51672;51.230;-2.322;2022-11-18T22:57:53;10.15;;;4.38;;
65077;SDS011;51672;51.230;-2.322;2022-11-18T23:01:35;14.18;;;5.20;;
65077;SDS011;51672;51.230;-2.322;2022-11-18T23:05:17;18.30;;;7.57;;
65077;SDS011;51672;51.230;-2.322;2022-11-18T23:08:59;16.10;;;8.50;;
65077;SDS011;51672;51.230;-2.322;2022-11-18T23:12:41;21.35;;;8.75;;
65077;SDS011;51672;51.230;-2.322;2022-11-18T23:16:41;18.37;;;8.97;;
65077;SDS011;51672;51.230;-2.322;2022-11-18T23:20:23;15.75;;;7.20;;
65077;SDS011;51672;51.230;-2.322;2022-11-18T23:24:05;19.25;;;6.63;;
65077;SDS011;51672;51.230;-2.322;2022-11-18T23:27:50;16.10;;;5.85;;
65077;SDS011;51672;51.230;-2.322;2022-11-18T23:31:34;16.53;;;5.27;;
65077;SDS011;51672;51.230;-2.322;2022-11-18T23:35:17;16.98;;;4.97;;
65077;SDS011;51672;51.230;-2.322;2022-11-18T23:38:59;13.90;;;4.28;;
65077;SDS011;51672;51.230;-2.322;2022-11-18T23:42:41;12.53;;;3.97;;
65077;SDS011;51672;51.230;-2.322;2022-11-18T23:46:23;12.00;;;3.42;;
65077;SDS011;51672;51.230;-2.322;2022-11-18T23:50:05;12.88;;;3.15;;
65077;SDS011;51672;51.230;-2.322;2022-11-18T23:53:51;9.50;;;3.30;;
65077;SDS011;51672;51.230;-2.322;2022-11-18T23:57:35;11.27;;;2.60;;
